createdAt,value
2023-03-23T15:57:57.968Z,11.95
2023-03-23T16:03:03.473Z,11.87
2023-03-23T16:08:11.986Z,11.81
2023-03-23T16:13:15.083Z,11.77
2023-03-23T16:18:22.001Z,11.71
2023-03-23T16:23:24.995Z,11.67
2023-03-23T16:28:28.087Z,11.66
2023-03-23T16:33:31.536Z,11.70
2023-03-23T16:38:49.827Z,11.73
2023-03-23T16:43:54.621Z,11.74
2023-03-23T16:48:57.733Z,11.70
2023-03-23T16:54:01.043Z,11.65
2023-03-23T16:59:04.228Z,11.58
2023-03-23T17:04:07.254Z,11.51
2023-03-23T17:09:10.265Z,11.45
2023-03-23T17:14:13.575Z,11.40
2023-03-23T17:19:16.996Z,11.34
2023-03-23T17:24:20.208Z,11.30
2023-03-23T17:29:23.889Z,11.28
2023-03-23T17:34:26.939Z,11.25
2023-03-23T17:39:31.981Z,11.21
2023-03-23T17:44:46.072Z,11.17
2023-03-23T17:49:49.167Z,11.16
2023-03-23T17:54:54.118Z,11.14
2023-03-23T17:59:57.358Z,11.10
2023-03-23T18:05:00.638Z,11.07
2023-03-23T18:10:06.205Z,11.04
2023-03-23T18:15:11.140Z,11.00
2023-03-23T18:20:14.577Z,10.96
2023-03-23T18:25:17.804Z,10.94
2023-03-23T18:30:21.225Z,10.92
2023-03-23T18:35:24.314Z,10.89
2023-03-23T18:40:27.428Z,10.87
2023-03-23T18:45:30.666Z,10.87
2023-03-23T18:50:33.984Z,10.86
2023-03-23T18:55:37.057Z,10.85
2023-03-23T19:00:41.141Z,10.83
2023-03-23T19:05:45.558Z,10.81
2023-03-23T19:10:48.845Z,10.78
2023-03-23T19:15:52.966Z,10.77
2023-03-23T19:21:13.013Z,10.77
2023-03-23T19:26:28.863Z,10.75
2023-03-23T19:31:32.024Z,10.76
2023-03-23T19:36:37.033Z,10.77
2023-03-23T19:41:41.736Z,10.83
2023-03-23T19:46:45.475Z,10.88
2023-03-23T19:51:49.058Z,10.96
2023-03-23T19:56:52.493Z,11.07
2023-03-23T20:01:55.695Z,11.15
2023-03-23T20:06:59.294Z,11.19
2023-03-23T20:12:02.482Z,11.19
2023-03-23T20:17:09.896Z,11.19
2023-03-23T20:22:14.567Z,11.19
2023-03-23T20:27:18.244Z,11.18
2023-03-23T20:32:21.497Z,11.10
2023-03-23T20:37:26.249Z,10.97
2023-03-23T20:42:29.761Z,10.86
2023-03-23T20:47:33.003Z,10.75
2023-03-23T20:52:37.107Z,10.59
2023-03-23T20:57:40.420Z,10.43
2023-03-23T21:02:43.987Z,10.27
2023-03-23T21:07:48.994Z,10.12
2023-03-23T21:12:51.996Z,10.04
2023-03-23T21:17:55.660Z,9.97
2023-03-23T21:22:59.484Z,9.88
2023-03-23T21:28:04.392Z,9.80
2023-03-23T21:33:08.597Z,9.72
2023-03-23T21:38:14.489Z,9.67
2023-03-23T21:43:17.501Z,9.64
2023-03-23T21:48:22.249Z,9.62
2023-03-23T21:53:27.209Z,9.60
2023-03-23T21:58:30.721Z,9.54
2023-03-23T22:03:35.401Z,9.47
2023-03-23T22:08:40.444Z,9.43
2023-03-23T22:13:43.639Z,9.38
2023-03-23T22:18:48.274Z,9.34
2023-03-23T22:23:51.792Z,9.28
2023-03-23T22:28:56.031Z,9.20
2023-03-23T22:33:59.038Z,9.09
2023-03-23T22:39:03.061Z,9.01
2023-03-23T22:44:11.685Z,9.00
2023-03-23T22:49:14.837Z,9.00
2023-03-23T22:54:17.929Z,9.00
2023-03-23T22:59:21.652Z,9.01
2023-03-23T23:04:24.808Z,9.01
2023-03-23T23:09:27.874Z,9.00
2023-03-23T23:14:31.294Z,8.98
2023-03-23T23:19:34.295Z,8.97
2023-03-23T23:24:37.505Z,8.94
2023-03-23T23:29:40.719Z,8.89
2023-03-23T23:34:43.621Z,8.83
2023-03-23T23:39:47.212Z,8.75
2023-03-23T23:44:50.171Z,8.70
2023-03-23T23:49:53.354Z,8.65
2023-03-23T23:54:56.774Z,8.56
2023-03-23T23:59:59.983Z,8.44
